Swords, Ireland
Current Conditions -  °F | °C
As of 12:00 PM on Wednesday 22 Oct 2014 (Local Time) from EIDW Reporting Station
Broken Clouds Broken Clouds  
Wind Chill: 52°   Ceiling: 6000
Heat Index: 52°   Visibility: 6mi
Dew Point: 46°   Wind: 20mph
Humidity: 82%   Direction: 250°WSW
Pressure: 30.21"   Gusts: NA
Location:  53.45°N, 6.22°W
Report Text: EIDW 221200Z 25017KT 9999 FEW017 SCT027 BKN060 11/08 Q1023 NOSIG
Loading
Personal Weather Stations






























Interactive Weather Map New forecast layout! Learn more

10-Day Weather Forecast

Advertisements
Track Severe Weather on mobile